createdAt,value
2022-09-24T00:00:28.475Z,9.23
2022-09-24T00:01:28.508Z,9.22
2022-09-24T00:02:28.534Z,9.22
2022-09-24T00:03:28.472Z,9.23
2022-09-24T00:04:28.431Z,9.25
2022-09-24T00:05:28.417Z,9.23
2022-09-24T00:06:28.398Z,9.23
2022-09-24T00:07:28.425Z,9.16
2022-09-24T00:08:28.412Z,9.22
2022-09-24T00:09:28.400Z,9.16
2022-09-24T00:10:28.357Z,9.13
2022-09-24T00:11:28.347Z,9.11
2022-09-24T00:12:28.361Z,9.02
2022-09-24T00:13:28.321Z,9.06
2022-09-24T00:14:28.413Z,9.13
2022-09-24T00:15:28.304Z,9.02
2022-09-24T00:16:28.493Z,8.99
2022-09-24T00:17:28.279Z,9.03
2022-09-24T00:18:28.269Z,8.97
2022-09-24T00:19:28.255Z,9.03
2022-09-24T00:20:28.309Z,9.06
2022-09-24T00:21:28.233Z,8.99
2022-09-24T00:22:28.227Z,9.03
2022-09-24T00:23:28.215Z,9.03
2022-09-24T00:24:28.201Z,9.03
2022-09-24T00:25:28.190Z,8.97
2022-09-24T00:26:28.231Z,9.00
2022-09-24T00:27:28.163Z,9.03
2022-09-24T00:28:28.210Z,8.92
2022-09-24T00:29:28.151Z,8.94
2022-09-24T00:30:28.135Z,8.94
2022-09-24T00:31:28.207Z,8.92
2022-09-24T00:32:28.180Z,8.91
2022-09-24T00:33:28.101Z,9.00
2022-09-24T00:34:28.088Z,8.95
2022-09-24T00:35:28.081Z,8.94
2022-09-24T00:36:28.077Z,8.91
2022-09-24T00:37:28.071Z,8.88
2022-09-24T00:38:28.074Z,8.92
2022-09-24T00:39:28.032Z,8.92
2022-09-24T00:40:28.082Z,8.84
2022-09-24T00:41:28.091Z,8.87
2022-09-24T00:42:28.004Z,8.92
2022-09-24T00:43:27.988Z,8.88
2022-09-24T00:44:28.026Z,8.88
2022-09-24T00:45:27.960Z,8.85
2022-09-24T00:46:28.020Z,8.89
2022-09-24T00:47:27.946Z,8.88
2022-09-24T00:48:27.926Z,8.88
2022-09-24T00:49:27.930Z,8.91
2022-09-24T00:50:27.934Z,8.82
2022-09-24T00:51:27.894Z,8.91
2022-09-24T00:52:27.888Z,8.84
2022-09-24T00:53:27.875Z,8.79
2022-09-24T00:54:27.877Z,8.87
2022-09-24T00:55:27.850Z,8.79
2022-09-24T00:56:27.882Z,8.82
2022-09-24T00:57:27.833Z,8.78
2022-09-24T00:58:27.815Z,8.81
2022-09-24T00:59:27.810Z,8.78
2022-09-24T01:00:27.966Z,8.67
2022-09-24T01:01:27.826Z,8.69
2022-09-24T01:02:27.934Z,8.67
2022-09-24T01:03:27.761Z,8.78
2022-09-24T01:04:27.752Z,8.67
2022-09-24T01:05:27.760Z,8.70
2022-09-24T01:06:27.722Z,8.74
2022-09-24T01:07:27.719Z,8.78
2022-09-24T01:08:27.725Z,8.71
2022-09-24T01:09:27.743Z,8.79
2022-09-24T01:10:27.692Z,8.76
2022-09-24T01:11:27.691Z,8.87
2022-09-24T01:12:27.659Z,8.70
2022-09-24T01:13:27.651Z,8.70
2022-09-24T01:14:27.673Z,8.69
2022-09-24T01:15:27.636Z,8.66
2022-09-24T01:16:27.781Z,8.60
2022-09-24T01:17:27.602Z,8.70
2022-09-24T01:18:27.593Z,8.67
2022-09-24T01:19:27.622Z,8.61
2022-09-24T01:20:27.587Z,8.66
2022-09-24T01:21:27.568Z,8.61
2022-09-24T01:22:27.551Z,8.58
2022-09-24T01:23:27.573Z,8.49
2022-09-24T01:24:27.521Z,8.56
2022-09-24T01:25:27.512Z,8.55
2022-09-24T01:26:27.544Z,8.58
2022-09-24T01:27:27.492Z,8.55
2022-09-24T01:28:27.487Z,8.49
2022-09-24T01:29:27.502Z,8.53
2022-09-24T01:30:27.461Z,8.53
2022-09-24T01:31:27.553Z,8.49
2022-09-24T01:32:32.167Z,8.42
2022-09-24T01:33:28.434Z,8.45
2022-09-24T01:34:27.422Z,8.52
2022-09-24T01:35:27.411Z,8.38
2022-09-24T01:36:27.390Z,8.49
2022-09-24T01:37:27.381Z,8.34
2022-09-24T01:38:27.392Z,8.51
2022-09-24T01:39:27.388Z,8.45
2022-09-24T01:40:27.423Z,8.41
2022-09-24T01:41:27.332Z,8.36
2022-09-24T01:42:27.327Z,8.44
2022-09-24T01:43:27.311Z,8.42
2022-09-24T01:44:27.312Z,8.37
2022-09-24T01:45:27.301Z,8.44
2022-09-24T01:46:27.301Z,8.45
2022-09-24T01:47:29.920Z,8.38
2022-09-24T01:48:28.287Z,8.36
2022-09-24T01:49:27.241Z,8.36
2022-09-24T01:50:27.279Z,8.37
2022-09-24T01:51:27.220Z,8.42
2022-09-24T01:52:27.205Z,8.36
2022-09-24T01:53:27.204Z,8.42
2022-09-24T01:54:27.188Z,8.44
2022-09-24T01:55:27.190Z,8.45
2022-09-24T01:56:27.187Z,8.37
2022-09-24T01:57:27.152Z,8.31
2022-09-24T01:58:27.145Z,8.34
2022-09-24T01:59:27.125Z,8.38
2022-09-24T02:00:27.139Z,8.31
2022-09-24T02:01:27.165Z,8.31
2022-09-24T02:02:27.190Z,8.27
2022-09-24T02:03:27.086Z,8.24
2022-09-24T02:04:27.098Z,8.33
2022-09-24T02:05:27.064Z,8.26
2022-09-24T02:06:27.050Z,8.23
2022-09-24T02:07:27.049Z,8.27
2022-09-24T02:08:27.062Z,8.28
2022-09-24T02:09:27.027Z,8.24
2022-09-24T02:10:27.016Z,8.24
2022-09-24T02:11:27.003Z,8.24
2022-09-24T02:12:26.986Z,8.24
2022-09-24T02:13:26.974Z,8.26
2022-09-24T02:14:26.997Z,8.23
2022-09-24T02:15:32.108Z,8.27
2022-09-24T02:16:28.018Z,8.24
2022-09-24T02:17:26.937Z,8.23
2022-09-24T02:18:26.913Z,8.16
2022-09-24T02:19:26.904Z,8.23
2022-09-24T02:20:26.948Z,8.27
2022-09-24T02:21:26.881Z,8.15
2022-09-24T02:22:26.873Z,8.23
2022-09-24T02:23:26.865Z,8.18
2022-09-24T02:24:26.849Z,8.23
2022-09-24T02:25:26.833Z,8.20
2022-09-24T02:26:26.852Z,8.26
2022-09-24T02:27:26.812Z,8.23
2022-09-24T02:28:26.811Z,8.15
2022-09-24T02:29:26.791Z,8.24
2022-09-24T02:30:26.786Z,8.18
2022-09-24T02:31:26.820Z,8.27
2022-09-24T02:32:26.769Z,8.26
2022-09-24T02:33:26.750Z,8.27
2022-09-24T02:34:26.732Z,8.27
2022-09-24T02:35:26.730Z,8.26
2022-09-24T02:36:26.878Z,8.23
2022-09-24T02:37:26.699Z,8.23
2022-09-24T02:38:26.765Z,8.31
2022-09-24T02:39:26.680Z,8.36
2022-09-24T02:40:26.757Z,8.36
2022-09-24T02:41:26.663Z,8.33
2022-09-24T02:42:26.645Z,8.34
2022-09-24T02:43:26.639Z,8.34
2022-09-24T02:44:26.634Z,8.38
2022-09-24T02:45:26.614Z,8.33
2022-09-24T02:46:26.662Z,8.34
2022-09-24T02:47:26.588Z,8.42
2022-09-24T02:48:26.582Z,8.27
2022-09-24T02:49:26.566Z,8.31
2022-09-24T02:50:26.575Z,8.36
2022-09-24T02:51:26.557Z,8.37
2022-09-24T02:52:26.564Z,8.33
2022-09-24T02:53:26.523Z,8.41
2022-09-24T02:54:26.518Z,8.44
2022-09-24T02:55:26.499Z,8.27
2022-09-24T02:56:26.521Z,8.36
2022-09-24T02:57:26.480Z,8.31
2022-09-24T02:58:34.428Z,8.31
2022-09-24T02:59:33.971Z,8.26
2022-09-24T03:00:26.448Z,8.23
2022-09-24T03:01:33.717Z,8.19
2022-09-24T03:02:26.527Z,8.23
2022-09-24T03:03:26.420Z,8.13
2022-09-24T03:04:26.402Z,8.12
2022-09-24T03:05:26.394Z,8.10
2022-09-24T03:06:26.377Z,8.12
2022-09-24T03:07:26.380Z,8.10
2022-09-24T03:08:26.379Z,8.13
2022-09-24T03:09:26.346Z,8.13
2022-09-24T03:10:26.358Z,8.16
2022-09-24T03:11:26.321Z,8.13
2022-09-24T03:12:26.310Z,8.19
2022-09-24T03:13:26.329Z,8.10
2022-09-24T03:14:26.285Z,8.12
2022-09-24T03:15:26.278Z,8.03
2022-09-24T03:16:26.387Z,8.15
2022-09-24T03:17:26.255Z,8.16
2022-09-24T03:18:26.241Z,8.15
2022-09-24T03:19:26.250Z,8.12
2022-09-24T03:20:26.224Z,8.13
2022-09-24T03:21:26.214Z,8.09
2022-09-24T03:22:26.198Z,8.10
2022-09-24T03:23:26.183Z,8.10
2022-09-24T03:24:26.218Z,8.12
2022-09-24T03:25:26.206Z,8.12
2022-09-24T03:26:26.168Z,8.12
2022-09-24T03:27:26.142Z,8.12
2022-09-24T03:28:26.141Z,8.15
2022-09-24T03:29:26.121Z,8.16
2022-09-24T03:30:26.110Z,8.13
2022-09-24T03:31:26.224Z,8.13
2022-09-24T03:32:26.085Z,8.10
2022-09-24T03:33:26.080Z,8.06
2022-09-24T03:34:26.070Z,8.09
2022-09-24T03:35:26.060Z,8.09
2022-09-24T03:36:26.112Z,8.10
2022-09-24T03:37:26.085Z,8.01
2022-09-24T03:38:26.022Z,7.98
2022-09-24T03:39:26.010Z,8.06
2022-09-24T03:40:26.089Z,7.95
2022-09-24T03:41:25.991Z,7.94
2022-09-24T03:42:25.975Z,7.94
2022-09-24T03:43:25.983Z,7.97
2022-09-24T03:44:25.960Z,7.97
2022-09-24T03:45:25.945Z,7.94
2022-09-24T03:46:26.026Z,7.90
2022-09-24T03:47:25.926Z,7.97
2022-09-24T03:48:25.909Z,8.00
2022-09-24T03:49:25.918Z,7.85
2022-09-24T03:50:25.884Z,8.03
2022-09-24T03:51:25.880Z,7.80
2022-09-24T03:52:25.864Z,7.88
2022-09-24T03:53:25.851Z,7.90
2022-09-24T03:54:25.850Z,7.80
2022-09-24T03:55:25.858Z,7.94
2022-09-24T03:56:25.881Z,7.90
2022-09-24T03:57:25.811Z,7.87
2022-09-24T03:58:25.793Z,7.87
2022-09-24T03:59:25.788Z,7.90
2022-09-24T04:00:25.775Z,7.91
2022-09-24T04:01:25.875Z,7.91
2022-09-24T04:02:25.824Z,7.95
2022-09-24T04:03:25.794Z,7.93
2022-09-24T04:04:25.731Z,7.97
2022-09-24T04:05:25.716Z,8.01
2022-09-24T04:06:26.172Z,7.93
2022-09-24T04:07:25.728Z,8.03
2022-09-24T04:08:25.712Z,8.01
2022-09-24T04:09:25.676Z,8.01
2022-09-24T04:10:25.712Z,7.95
2022-09-24T04:11:25.648Z,7.90
2022-09-24T04:12:25.660Z,7.93
2022-09-24T04:13:25.806Z,7.95
2022-09-24T04:14:25.617Z,7.91
2022-09-24T04:15:25.608Z,8.00
2022-09-24T04:16:25.683Z,8.01
2022-09-24T04:17:25.580Z,8.03
2022-09-24T04:18:25.574Z,7.98
2022-09-24T04:19:25.573Z,8.00
2022-09-24T04:20:25.556Z,8.01
2022-09-24T04:21:25.541Z,8.01
2022-09-24T04:22:25.533Z,7.97
2022-09-24T04:23:25.519Z,8.00
2022-09-24T04:24:25.501Z,8.06
2022-09-24T04:25:25.521Z,7.94
2022-09-24T04:26:25.525Z,7.94
2022-09-24T04:27:25.477Z,7.94
2022-09-24T04:28:25.569Z,7.93
2022-09-24T04:29:25.449Z,7.95
2022-09-24T04:30:25.441Z,8.06
2022-09-24T04:31:25.529Z,8.09
2022-09-24T04:32:25.413Z,8.09
2022-09-24T04:33:25.408Z,8.03
2022-09-24T04:34:25.391Z,8.05
2022-09-24T04:35:25.452Z,8.09
2022-09-24T04:36:25.372Z,8.08
2022-09-24T04:37:25.400Z,8.00
2022-09-24T04:38:25.342Z,8.10
2022-09-24T04:39:25.341Z,8.03
2022-09-24T04:40:25.392Z,8.12
2022-09-24T04:41:25.321Z,8.08
2022-09-24T04:42:25.320Z,8.15
2022-09-24T04:43:25.298Z,8.09
2022-09-24T04:44:25.305Z,8.01
2022-09-24T04:45:25.344Z,8.09
2022-09-24T04:46:25.299Z,8.10
2022-09-24T04:47:25.251Z,8.15
2022-09-24T04:48:25.237Z,8.10
2022-09-24T04:49:25.266Z,7.98
2022-09-24T04:50:25.211Z,8.08
2022-09-24T04:51:25.230Z,8.10
2022-09-24T04:52:25.216Z,8.12
2022-09-24T04:53:25.179Z,8.13
2022-09-24T04:54:25.176Z,8.20
2022-09-24T04:55:25.183Z,8.26
2022-09-24T04:56:25.150Z,8.20
2022-09-24T04:57:25.134Z,8.23
2022-09-24T04:58:25.118Z,8.27
2022-09-24T04:59:25.114Z,8.26
2022-09-24T05:00:25.128Z,8.19
2022-09-24T05:01:25.217Z,8.30
2022-09-24T05:02:25.237Z,8.30
2022-09-24T05:03:25.066Z,8.20
2022-09-24T05:04:25.052Z,8.20
2022-09-24T05:05:25.043Z,8.27
2022-09-24T05:06:25.033Z,8.26
2022-09-24T05:07:25.059Z,8.24
2022-09-24T05:08:25.014Z,8.27
2022-09-24T05:09:24.999Z,8.27
2022-09-24T05:10:24.986Z,8.19
2022-09-24T05:11:24.974Z,8.20
2022-09-24T05:12:24.958Z,8.26
2022-09-24T05:13:24.970Z,8.20
2022-09-24T05:14:24.993Z,8.20
2022-09-24T05:15:24.949Z,8.23
2022-09-24T05:16:24.999Z,8.23
2022-09-24T05:17:24.907Z,8.26
2022-09-24T05:18:24.897Z,8.24
2022-09-24T05:19:24.913Z,8.33
2022-09-24T05:20:24.877Z,8.37
2022-09-24T05:21:24.860Z,8.33
2022-09-24T05:22:24.849Z,8.45
2022-09-24T05:23:24.847Z,8.41
2022-09-24T05:24:24.822Z,8.55
2022-09-24T05:25:24.878Z,8.58
2022-09-24T05:26:24.824Z,8.67
2022-09-24T05:27:24.796Z,8.69
2022-09-24T05:28:24.788Z,8.71
2022-09-24T05:29:24.778Z,8.74
2022-09-24T05:30:24.788Z,8.73
2022-09-24T05:31:24.875Z,8.70
2022-09-24T05:32:24.764Z,8.69
2022-09-24T05:33:24.728Z,8.73
2022-09-24T05:34:24.725Z,8.76
2022-09-24T05:35:24.708Z,8.82
2022-09-24T05:36:24.701Z,8.87
2022-09-24T05:37:24.716Z,8.88
2022-09-24T05:38:24.675Z,8.97
2022-09-24T05:39:24.666Z,9.02
2022-09-24T05:40:24.765Z,9.03
2022-09-24T05:41:24.645Z,9.08
2022-09-24T05:42:24.634Z,9.10
2022-09-24T05:43:24.722Z,9.22
2022-09-24T05:44:24.610Z,9.26
2022-09-24T05:45:24.596Z,9.29
2022-09-24T05:46:24.655Z,9.34
2022-09-24T05:47:24.573Z,9.43
2022-09-24T05:48:24.585Z,9.54
2022-09-24T05:49:24.573Z,9.65
2022-09-24T05:50:24.539Z,9.58
2022-09-24T05:51:24.529Z,9.59
2022-09-24T05:52:24.540Z,9.62
2022-09-24T05:53:24.512Z,9.66
2022-09-24T05:54:24.497Z,9.82
2022-09-24T05:55:27.651Z,9.79
2022-09-24T05:56:25.490Z,9.82
2022-09-24T05:57:24.468Z,9.83
2022-09-24T05:58:24.475Z,9.84
2022-09-24T05:59:24.433Z,9.79
2022-09-24T06:00:24.439Z,9.94
2022-09-24T06:01:24.587Z,9.86
2022-09-24T06:02:24.490Z,9.91
2022-09-24T06:03:24.450Z,9.87
2022-09-24T06:04:24.403Z,9.92
2022-09-24T06:05:24.408Z,9.98
2022-09-24T06:06:24.357Z,9.92
2022-09-24T06:07:24.390Z,9.92
2022-09-24T06:08:24.343Z,9.99
2022-09-24T06:09:24.350Z,9.98
2022-09-24T06:10:24.320Z,9.97
2022-09-24T06:11:24.306Z,10.01
2022-09-24T06:12:24.290Z,9.97
2022-09-24T06:13:24.300Z,10.01
2022-09-24T06:14:24.289Z,9.95
2022-09-24T06:15:24.266Z,10.02
2022-09-24T06:16:24.351Z,10.04
2022-09-24T06:17:24.234Z,9.97
2022-09-24T06:18:24.230Z,10.02
2022-09-24T06:19:24.280Z,10.05
2022-09-24T06:20:24.231Z,10.02
2022-09-24T06:21:24.192Z,10.09
2022-09-24T06:22:28.306Z,10.17
2022-09-24T06:23:24.166Z,10.15
2022-09-24T06:24:24.158Z,10.23
2022-09-24T06:25:24.181Z,10.23
2022-09-24T06:26:24.135Z,10.25
2022-09-24T06:27:24.128Z,10.35
2022-09-24T06:28:24.116Z,10.40
2022-09-24T06:29:24.109Z,10.34
2022-09-24T06:30:24.100Z,10.34
2022-09-24T06:31:24.271Z,10.46
2022-09-24T06:32:24.067Z,10.41
2022-09-24T06:33:24.058Z,10.48
2022-09-24T06:34:24.051Z,10.44
2022-09-24T06:35:24.037Z,10.42
2022-09-24T06:36:24.054Z,10.46
2022-09-24T06:37:24.054Z,10.54
2022-09-24T06:38:23.999Z,10.53
2022-09-24T06:39:24.034Z,10.59
2022-09-24T06:40:24.127Z,10.61
2022-09-24T06:41:23.974Z,10.60
2022-09-24T06:42:23.959Z,10.72
2022-09-24T06:43:24.004Z,10.71
2022-09-24T06:44:23.936Z,10.74
2022-09-24T06:45:23.919Z,10.76
2022-09-24T06:46:24.053Z,10.87
2022-09-24T06:47:23.902Z,10.89
2022-09-24T06:48:23.892Z,10.90
2022-09-24T06:49:23.900Z,10.96
2022-09-24T06:50:23.902Z,11.07
2022-09-24T06:51:23.850Z,11.02
2022-09-24T06:52:23.867Z,11.11
2022-09-24T06:53:23.840Z,11.10
2022-09-24T06:54:23.939Z,11.12
2022-09-24T06:55:23.839Z,11.23
2022-09-24T06:56:23.816Z,11.36
2022-09-24T06:57:28.676Z,11.36
2022-09-24T06:58:24.779Z,11.44
2022-09-24T06:59:23.761Z,11.37
2022-09-24T07:00:23.759Z,11.47
2022-09-24T07:01:23.872Z,11.54
2022-09-24T07:02:23.802Z,11.57
2022-09-24T07:03:23.719Z,11.68
2022-09-24T07:04:23.710Z,11.65
2022-09-24T07:05:23.699Z,11.57
2022-09-24T07:06:23.689Z,11.63
2022-09-24T07:07:23.704Z,11.69
2022-09-24T07:08:23.688Z,11.60
2022-09-24T07:09:23.654Z,11.59
2022-09-24T07:10:23.704Z,11.51
2022-09-24T07:11:23.635Z,11.54
2022-09-24T07:12:23.622Z,11.52
2022-09-24T07:13:23.645Z,11.68
2022-09-24T07:14:23.603Z,11.69
2022-09-24T07:15:23.586Z,11.66
2022-09-24T07:16:23.633Z,11.65
2022-09-24T07:17:23.563Z,11.65
2022-09-24T07:18:23.585Z,11.72
2022-09-24T07:19:23.587Z,11.72
2022-09-24T07:20:23.689Z,11.81
2022-09-24T07:21:23.526Z,11.78
2022-09-24T07:22:23.557Z,11.84
2022-09-24T07:23:23.509Z,11.91
2022-09-24T07:24:23.508Z,11.91
2022-09-24T07:25:23.497Z,12.02
2022-09-24T07:26:23.463Z,12.04
2022-09-24T07:27:23.449Z,12.17
2022-09-24T07:28:23.445Z,12.24
2022-09-24T07:29:23.428Z,12.18
2022-09-24T07:30:23.621Z,12.28
2022-09-24T07:31:23.463Z,12.32
2022-09-24T07:32:28.959Z,12.29
2022-09-24T07:33:24.424Z,12.43
2022-09-24T07:34:23.371Z,12.47
2022-09-24T07:35:23.362Z,12.50
2022-09-24T07:36:23.349Z,12.57
2022-09-24T07:37:23.364Z,12.62
2022-09-24T07:38:23.334Z,12.73
2022-09-24T07:39:23.321Z,12.85
2022-09-24T07:40:23.531Z,12.79
2022-09-24T07:41:38.632Z,12.85
2022-09-24T07:43:43.461Z,12.98
2022-09-24T07:44:43.510Z,13.01
2022-09-24T07:46:59.053Z,13.00
2022-09-24T07:47:58.924Z,13.08
2022-09-24T07:48:58.937Z,13.05
2022-09-24T07:49:58.897Z,13.13
2022-09-24T07:50:58.887Z,13.19
2022-09-24T07:51:58.906Z,13.23
2022-09-24T07:52:58.855Z,13.37
2022-09-24T07:53:58.843Z,13.33
2022-09-24T07:54:58.873Z,13.39
2022-09-24T07:55:58.845Z,13.53
2022-09-24T07:56:58.813Z,13.62
2022-09-24T07:57:58.806Z,13.70
2022-09-24T07:58:58.800Z,13.75
2022-09-24T07:59:58.791Z,13.78
2022-09-24T08:00:58.777Z,13.75
2022-09-24T08:01:58.797Z,13.83
2022-09-24T08:02:58.746Z,13.96
2022-09-24T08:03:58.963Z,13.85
2022-09-24T08:04:58.726Z,13.89
2022-09-24T08:05:58.730Z,14.00
2022-09-24T08:06:58.713Z,14.07
2022-09-24T08:07:58.698Z,14.07
2022-09-24T08:08:58.678Z,14.10
2022-09-24T08:09:58.681Z,14.15
2022-09-24T08:10:58.658Z,14.20
2022-09-24T08:11:58.786Z,14.26
2022-09-24T08:12:58.705Z,14.23
2022-09-24T08:13:58.621Z,14.28
2022-09-24T08:14:58.626Z,14.29
2022-09-24T08:15:58.651Z,14.36
2022-09-24T08:16:58.621Z,14.37
2022-09-24T08:17:58.569Z,14.45
2022-09-24T08:18:58.585Z,14.47
2022-09-24T08:19:58.548Z,14.50
2022-09-24T08:20:58.538Z,14.60
2022-09-24T08:21:58.532Z,14.70
2022-09-24T08:22:58.516Z,14.73
2022-09-24T08:23:58.515Z,14.81
2022-09-24T08:24:58.521Z,14.84
2022-09-24T08:25:58.495Z,14.85
2022-09-24T08:26:58.476Z,14.97
2022-09-24T08:27:58.482Z,15.02
2022-09-24T08:28:58.456Z,15.15
2022-09-24T08:29:58.455Z,15.21
2022-09-24T08:30:58.479Z,15.25
2022-09-24T08:31:58.425Z,15.31
2022-09-24T08:32:58.402Z,15.42
2022-09-24T08:33:58.388Z,15.46
2022-09-24T08:34:58.390Z,15.52
2022-09-24T08:35:58.453Z,15.57
2022-09-24T08:36:58.373Z,15.64
2022-09-24T08:37:58.345Z,15.79
2022-09-24T08:38:58.333Z,15.79
2022-09-24T08:39:58.321Z,15.84
2022-09-24T08:40:58.408Z,15.95
2022-09-24T08:41:58.327Z,15.91
2022-09-24T08:42:58.328Z,16.00
2022-09-24T08:43:58.300Z,16.08
2022-09-24T08:44:58.272Z,16.08
2022-09-24T08:45:58.252Z,16.08
2022-09-24T08:46:58.273Z,16.10
2022-09-24T08:47:58.231Z,16.12
2022-09-24T08:48:58.232Z,16.05
2022-09-24T08:49:58.213Z,16.24
2022-09-24T08:50:58.199Z,16.26
2022-09-24T08:51:58.182Z,16.21
2022-09-24T08:52:58.177Z,16.20
2022-09-24T08:53:58.160Z,16.33
2022-09-24T08:54:58.170Z,16.23
2022-09-24T08:55:58.141Z,16.41
2022-09-24T08:56:58.131Z,16.36
2022-09-24T08:57:58.118Z,16.41
2022-09-24T08:58:58.139Z,16.43
2022-09-24T08:59:58.113Z,16.53
2022-09-24T09:00:58.099Z,16.46
2022-09-24T09:01:59.059Z,16.53
2022-09-24T09:02:58.151Z,16.58
2022-09-24T09:03:58.059Z,16.49
2022-09-24T09:04:58.051Z,16.68
2022-09-24T09:05:58.030Z,16.58
2022-09-24T09:06:58.031Z,16.68
2022-09-24T09:07:58.049Z,16.78
2022-09-24T09:09:13.388Z,16.89
2022-09-24T09:09:59.012Z,16.96
2022-09-24T09:10:57.984Z,16.94
2022-09-24T09:11:57.956Z,17.04
2022-09-24T09:12:58.012Z,17.08
2022-09-24T09:13:57.953Z,17.05
2022-09-24T09:14:57.952Z,17.05
2022-09-24T09:15:57.994Z,17.14
2022-09-24T09:16:57.905Z,17.06
2022-09-24T09:17:57.892Z,17.15
2022-09-24T09:18:57.889Z,17.11
2022-09-24T09:19:57.874Z,17.05
2022-09-24T09:20:57.857Z,17.12
2022-09-24T09:21:57.906Z,17.15
2022-09-24T09:22:57.830Z,17.16
2022-09-24T09:23:57.851Z,17.16
2022-09-24T09:25:02.946Z,17.23
2022-09-24T09:25:58.976Z,17.16
2022-09-24T09:26:57.795Z,17.14
2022-09-24T09:27:57.828Z,17.20
2022-09-24T09:28:57.775Z,17.20
2022-09-24T09:29:57.818Z,17.26
2022-09-24T09:30:57.802Z,17.24
2022-09-24T09:31:57.908Z,17.22
2022-09-24T09:32:57.720Z,17.27
2022-09-24T09:33:57.753Z,17.22
2022-09-24T09:34:57.698Z,17.33
2022-09-24T09:35:57.691Z,17.34
2022-09-24T09:36:57.816Z,17.26
2022-09-24T09:37:57.658Z,17.24
2022-09-24T09:38:57.658Z,17.26
2022-09-24T09:39:57.638Z,17.29
2022-09-24T09:40:57.788Z,17.26
2022-09-24T09:41:57.673Z,17.29
2022-09-24T09:42:57.638Z,17.29
2022-09-24T09:43:57.596Z,17.36
2022-09-24T09:44:57.581Z,17.36
2022-09-24T09:45:57.582Z,17.39
2022-09-24T09:46:57.678Z,17.36
2022-09-24T09:47:57.694Z,17.34
2022-09-24T09:48:57.566Z,17.30
2022-09-24T09:49:57.524Z,17.34
2022-09-24T09:50:57.520Z,17.39
2022-09-24T09:51:57.508Z,17.34
2022-09-24T09:52:57.498Z,17.41
2022-09-24T09:53:57.487Z,17.39
2022-09-24T09:54:57.540Z,17.41
2022-09-24T09:55:57.456Z,17.52
2022-09-24T09:56:57.511Z,17.45
2022-09-24T09:57:57.436Z,17.45
2022-09-24T09:58:57.433Z,17.48
2022-09-24T09:59:57.419Z,17.51
2022-09-24T10:00:57.417Z,17.46
2022-09-24T10:01:57.433Z,17.52
2022-09-24T10:02:57.510Z,17.39
2022-09-24T10:03:57.465Z,17.46
2022-09-24T10:04:57.362Z,17.51
2022-09-24T10:05:57.345Z,17.46
2022-09-24T10:06:57.398Z,17.41
2022-09-24T10:07:57.329Z,17.39
2022-09-24T10:08:57.315Z,17.42
2022-09-24T10:11:45.299Z,17.36
2022-09-24T10:12:45.308Z,17.24
2022-09-24T10:13:45.290Z,17.20
2022-09-24T10:14:45.345Z,17.23
2022-09-24T10:15:45.725Z,17.36
2022-09-24T10:16:45.453Z,17.41
2022-09-24T10:17:45.236Z,17.48
2022-09-24T10:18:45.378Z,17.54
2022-09-24T10:19:45.240Z,17.56
2022-09-24T10:20:45.213Z,17.57
2022-09-24T10:21:45.206Z,17.71
2022-09-24T10:22:45.198Z,17.76
2022-09-24T10:23:45.163Z,17.87
2022-09-24T10:24:45.173Z,17.80
2022-09-24T10:25:45.142Z,17.78
2022-09-24T10:26:45.722Z,17.79
2022-09-24T10:27:45.151Z,17.72
2022-09-24T10:28:45.107Z,17.70
2022-09-24T10:29:45.116Z,17.71
2022-09-24T10:30:45.118Z,17.63
2022-09-24T10:31:45.254Z,17.63
2022-09-24T10:32:45.131Z,17.65
2022-09-24T10:33:45.058Z,17.51
2022-09-24T10:34:45.043Z,17.64
2022-09-24T10:35:45.059Z,17.52
2022-09-24T10:36:45.122Z,17.54
2022-09-24T10:37:45.010Z,17.51
2022-09-24T10:38:45.003Z,17.56
2022-09-24T10:39:44.987Z,17.48
2022-09-24T10:40:45.072Z,17.48
2022-09-24T10:41:44.963Z,17.54
2022-09-24T10:42:44.964Z,17.44
2022-09-24T10:43:45.008Z,17.54
2022-09-24T10:44:48.123Z,17.54
2022-09-24T10:45:45.955Z,17.51
2022-09-24T10:46:45.002Z,17.48
2022-09-24T10:47:44.910Z,17.68
2022-09-24T10:49:06.388Z,17.70
2022-09-24T10:49:44.881Z,17.76
2022-09-24T10:50:44.867Z,17.67
2022-09-24T10:51:44.873Z,17.70
2022-09-24T10:52:44.846Z,17.80
2022-09-24T10:53:44.826Z,17.78
2022-09-24T10:54:44.836Z,17.79
2022-09-24T10:55:44.821Z,17.79
2022-09-24T10:56:46.589Z,17.86
2022-09-24T10:57:44.784Z,17.79
2022-09-24T10:58:44.780Z,17.89
2022-09-24T10:59:44.764Z,17.95
2022-09-24T11:00:51.751Z,17.90
2022-09-24T11:01:44.804Z,18.00
2022-09-24T11:02:44.803Z,17.95
2022-09-24T11:03:44.723Z,18.01
2022-09-24T11:04:44.733Z,17.98
2022-09-24T11:05:44.708Z,18.10
2022-09-24T11:06:44.749Z,18.19
2022-09-24T11:07:44.704Z,18.23
2022-09-24T11:08:44.658Z,18.28
2022-09-24T11:09:44.653Z,18.43
2022-09-24T11:10:44.642Z,18.41
2022-09-24T11:11:44.630Z,18.49
2022-09-24T11:12:44.731Z,18.50
2022-09-24T11:13:49.121Z,18.59
2022-09-24T11:14:45.587Z,18.63
2022-09-24T11:15:44.624Z,18.65
2022-09-24T11:16:44.591Z,18.66
2022-09-24T11:17:44.692Z,18.70
2022-09-24T11:18:44.589Z,18.78
2022-09-24T11:19:44.534Z,18.71
2022-09-24T11:20:44.529Z,18.68
2022-09-24T11:21:44.516Z,18.75
2022-09-24T11:22:44.509Z,18.83
2022-09-24T11:23:44.513Z,18.83
2022-09-24T11:24:44.502Z,18.88
2022-09-24T11:25:44.469Z,18.90
2022-09-24T11:26:44.456Z,18.95
2022-09-24T11:27:44.450Z,19.04
2022-09-24T11:28:44.434Z,18.99
2022-09-24T11:29:44.433Z,18.99
2022-09-24T11:30:44.450Z,19.15
2022-09-24T11:31:44.466Z,19.19
2022-09-24T11:32:44.392Z,19.26
2022-09-24T11:33:44.403Z,19.29
2022-09-24T11:34:44.371Z,19.31
2022-09-24T11:35:44.364Z,19.33
2022-09-24T11:36:44.450Z,19.29
2022-09-24T11:37:44.340Z,19.40
2022-09-24T11:38:44.349Z,19.51
2022-09-24T11:39:44.338Z,19.62
2022-09-24T11:40:44.409Z,19.59
2022-09-24T11:41:44.303Z,19.85
2022-09-24T11:42:51.972Z,19.89
2022-09-24T11:43:44.267Z,19.92
2022-09-24T11:44:44.265Z,19.94
2022-09-24T11:45:44.369Z,19.96
2022-09-24T11:46:44.322Z,20.09
2022-09-24T11:47:44.222Z,20.07
2022-09-24T11:48:44.254Z,20.13
2022-09-24T11:49:44.208Z,20.06
2022-09-24T11:50:47.674Z,20.02
2022-09-24T11:51:44.259Z,20.03
2022-09-24T11:52:44.167Z,20.00
2022-09-24T11:53:44.174Z,19.88
2022-09-24T11:54:44.155Z,19.95
2022-09-24T11:55:44.161Z,19.92
2022-09-24T11:56:44.116Z,19.94
2022-09-24T11:57:44.110Z,19.88
2022-09-24T11:58:44.098Z,19.85
2022-09-24T11:59:44.224Z,19.99
2022-09-24T12:00:44.179Z,19.85
2022-09-24T12:01:44.108Z,19.88
2022-09-24T12:02:44.118Z,19.86
2022-09-24T12:03:44.066Z,19.95
2022-09-24T12:04:44.033Z,19.92
2022-09-24T12:05:44.021Z,19.91
2022-09-24T12:06:44.040Z,19.99
2022-09-24T12:07:44.109Z,19.99
2022-09-24T12:08:43.990Z,19.94
2022-09-24T12:09:43.977Z,19.99
2022-09-24T12:10:43.983Z,19.99
2022-09-24T12:11:44.057Z,20.02
2022-09-24T12:12:44.032Z,19.96
2022-09-24T12:13:43.948Z,19.99
2022-09-24T12:14:43.924Z,19.94
2022-09-24T12:15:44.002Z,19.86
2022-09-24T12:16:43.901Z,19.88
2022-09-24T12:17:43.883Z,19.89
2022-09-24T12:18:43.913Z,19.94
2022-09-24T12:19:43.862Z,19.95
2022-09-24T12:20:43.849Z,19.95
2022-09-24T12:21:43.865Z,20.02
2022-09-24T12:22:43.826Z,20.13
2022-09-24T12:23:43.814Z,20.07
2022-09-24T12:24:43.886Z,20.21
2022-09-24T12:25:43.790Z,20.25
2022-09-24T12:26:43.784Z,20.28
2022-09-24T12:27:43.819Z,20.36
2022-09-24T12:28:51.504Z,20.32
2022-09-24T12:29:43.755Z,20.34
2022-09-24T12:30:43.790Z,20.40
2022-09-24T12:31:51.625Z,20.39
2022-09-24T12:32:43.722Z,20.40
2022-09-24T12:33:43.704Z,20.47
2022-09-24T12:34:43.696Z,20.43
2022-09-24T12:35:43.688Z,20.51
2022-09-24T12:36:43.707Z,20.55
2022-09-24T12:37:43.688Z,20.62
2022-09-24T12:38:43.656Z,20.75
2022-09-24T12:39:43.788Z,20.78
2022-09-24T12:40:43.746Z,20.87
2022-09-24T12:41:43.618Z,20.87
2022-09-24T12:42:43.681Z,20.85
2022-09-24T12:43:43.646Z,20.85
2022-09-24T12:44:43.602Z,20.87
2022-09-24T12:45:43.575Z,20.97
2022-09-24T12:46:43.631Z,20.95
2022-09-24T12:47:43.544Z,20.96
2022-09-24T12:48:43.571Z,20.96
2022-09-24T12:49:43.549Z,21.00
2022-09-24T12:50:43.523Z,20.97
2022-09-24T12:51:43.505Z,20.90
2022-09-24T12:52:43.491Z,20.92
2022-09-24T12:53:43.486Z,20.87
2022-09-24T12:54:43.522Z,20.85
2022-09-24T12:55:43.464Z,20.69
2022-09-24T12:56:43.449Z,20.65
2022-09-24T12:57:43.434Z,20.56
2022-09-24T12:58:43.497Z,20.50
2022-09-24T12:59:43.438Z,20.51
2022-09-24T13:00:43.455Z,20.40
2022-09-24T13:01:43.579Z,20.39
2022-09-24T13:02:43.583Z,20.48
2022-09-24T13:03:47.210Z,20.44
2022-09-24T13:04:43.375Z,20.43
2022-09-24T13:05:43.345Z,20.37
2022-09-24T13:06:43.572Z,20.34
2022-09-24T13:07:43.326Z,20.34
2022-09-24T13:08:43.315Z,20.31